Time;durP1;ratioP1;P1;durP2;ratioP2;P2;SDS_P1;SDS_P2;PMS_P1;PMS_P2;Temp;Humidity;BMP_temperature;BMP_pressure;BME280_temperature;BME280_humidity;BME280_pressure;Samples;Min_cycle;Max_cycle;Signal;HPM_P1;HPM_P2
2021/10/01 00:00:27;;;;;;;9.70;1.98;;;;;;;15.95;53.54;101564.06;5015122;28;20425;-68
2021/10/01 00:02:54;;;;;;;5.20;1.70;;;;;;;15.84;53.07;101563.59;5016408;28;20057;-66
2021/10/01 00:05:22;;;;;;;6.47;1.58;;;;;;;15.97;53.60;101556.22;5017010;28;20057;-67
2021/10/01 00:07:51;;;;;;;7.25;1.90;;;;;;;15.92;53.65;101550.84;5016678;28;20058;-67
2021/10/01 00:10:18;;;;;;;4.88;1.75;;;;;;;15.84;53.02;101551.63;5015536;28;20050;-67
2021/10/01 00:12:45;;;;;;;5.72;1.77;;;;;;;15.76;53.34;101554.09;5016497;28;20054;-66
2021/10/01 00:15:13;;;;;;;4.72;1.33;;;;;;;15.54;52.72;101551.50;5034836;28;20061;-67
2021/10/01 00:17:40;;;;;;;10.98;1.85;;;;;;;15.50;53.61;101547.72;5036600;28;20053;-67
2021/10/01 00:20:09;;;;;;;5.43;1.80;;;;;;;15.70;53.99;101546.28;5036047;28;20045;-67
2021/10/01 00:22:36;;;;;;;6.93;1.45;;;;;;;15.75;53.83;101538.59;5035263;28;20053;-66
2021/10/01 00:25:03;;;;;;;4.63;1.40;;;;;;;15.74;52.32;101539.72;5023106;28;20057;-67
2021/10/01 00:27:31;;;;;;;4.55;1.42;;;;;;;15.81;53.57;101532.84;5030266;28;20041;-66
2021/10/01 00:29:58;;;;;;;9.13;1.75;;;;;;;15.80;53.95;101543.16;5033405;28;20053;-66
2021/10/01 00:32:25;;;;;;;5.35;1.50;;;;;;;15.54;53.94;101539.56;5034373;28;20057;-66
2021/10/01 00:34:52;;;;;;;6.68;1.70;;;;;;;15.42;54.08;101543.00;5017853;28;20062;-66
2021/10/01 00:37:21;;;;;;;5.13;1.55;;;;;;;15.53;55.11;101540.72;5035932;28;20041;-67
2021/10/01 00:39:48;;;;;;;6.30;1.70;;;;;;;15.59;54.85;101536.63;5047261;28;20055;-66
2021/10/01 00:42:15;;;;;;;11.07;1.70;;;;;;;15.49;54.26;101537.78;5055617;28;20056;-66
2021/10/01 00:44:43;;;;;;;6.63;1.52;;;;;;;15.38;55.02;101541.97;5055861;28;20045;-67
2021/10/01 00:47:10;;;;;;;7.35;1.65;;;;;;;15.56;54.86;101545.63;5022870;28;20074;-66
2021/10/01 00:49:37;;;;;;;5.25;1.60;;;;;;;15.40;54.60;101547.22;5018475;28;20396;-66
2021/10/01 00:52:06;;;;;;;6.18;1.67;;;;;;;15.45;54.54;101539.56;5034472;28;20064;-66
2021/10/01 00:54:35;;;;;;;9.02;1.65;;;;;;;15.39;54.76;101534.47;5035902;28;20444;-67
2021/10/01 00:57:03;;;;;;;5.40;1.70;;;;;;;15.51;55.05;101532.72;5033796;28;20045;-67
2021/10/01 00:59:30;;;;;;;5.80;1.50;;;;;;;15.44;55.44;101526.84;5029542;28;20042;-67
2021/10/01 01:01:57;;;;;;;4.50;1.70;;;;;;;15.28;56.45;101525.66;5013780;28;20529;-66
2021/10/01 01:04:25;;;;;;;5.95;1.80;;;;;;;15.34;55.99;101523.53;5022978;28;20042;-66
2021/10/01 01:07:32;;;;;;;4.57;1.38;;;;;;;15.16;55.35;101525.47;5033567;28;20401;-67
2021/10/01 01:10:08;;;;;;;6.75;1.77;;;;;;;15.30;55.44;101515.03;5034042;28;20049;-67
2021/10/01 01:12:48;;;;;;;7.22;1.70;;;;;;;15.30;55.02;101515.03;5034145;28;20045;-67
2021/10/01 01:15:23;;;;;;;6.60;1.98;;;;;;;15.37;55.45;101515.38;5033656;28;20076;-67
2021/10/01 01:18:08;;;;;;;6.65;1.83;;;;;;;14.88;56.08;101506.63;4984033;28;20064;-69
2021/10/01 01:20:38;;;;;;;7.60;2.10;;;;;;;15.21;56.58;101503.09;4998193;28;20084;-67
2021/10/01 01:23:20;;;;;;;7.20;1.60;;;;;;;15.11;55.64;101505.38;5023402;28;20050;-67
2021/10/01 01:26:03;;;;;;;5.78;1.73;;;;;;;14.95;55.11;101496.72;5033910;28;20084;-66
2021/10/01 01:28:42;;;;;;;5.40;1.50;;;;;;;15.06;56.95;101488.91;5033560;28;20072;-67
2021/10/01 01:31:29;;;;;;;5.53;1.58;;;;;;;15.09;57.11;101488.25;5017771;28;20515;-67
2021/10/01 01:34:00;;;;;;;5.80;1.52;;;;;;;15.23;56.09;101488.91;5031534;28;20083;-67
2021/10/01 01:36:29;;;;;;;4.95;1.70;;;;;;;15.44;55.99;101493.53;5017465;28;20057;-67
2021/10/01 01:39:01;;;;;;;8.32;1.90;;;;;;;15.43;56.04;101502.19;5038397;28;20041;-67
2021/10/01 01:41:30;;;;;;;5.65;1.70;;;;;;;15.22;56.45;101490.06;5037562;28;20057;-67
2021/10/01 01:43:58;;;;;;;7.25;1.90;;;;;;;15.15;56.40;101493.28;5038436;28;20049;-65
2021/10/01 01:46:26;;;;;;;8.73;1.85;;;;;;;15.03;56.76;101484.00;5016947;28;20064;-67
2021/10/01 01:49:04;;;;;;;5.35;1.50;;;;;;;15.05;56.83;101476.97;5033737;28;20062;-66
2021/10/01 01:51:33;;;;;;;6.20;1.70;;;;;;;15.23;56.73;101478.63;5016863;28;20057;-67
2021/10/01 01:54:01;;;;;;;5.85;1.30;;;;;;;15.23;56.39;101469.47;5033412;28;20061;-67
2021/10/01 01:56:30;;;;;;;4.18;1.27;;;;;;;15.43;56.92;101469.66;5014535;28;20061;-67
2021/10/01 01:58:58;;;;;;;3.55;1.13;;;;;;;15.64;56.14;101464.25;5013815;28;20060;-67
2021/10/01 02:01:41;;;;;;;9.02;1.73;;;;;;;15.54;56.55;101454.31;5015287;28;20049;-67
2021/10/01 02:04:14;;;;;;;5.95;1.55;;;;;;;15.38;57.24;101455.09;5002768;28;20065;-67
2021/10/01 02:06:43;;;;;;;5.70;1.70;;;;;;;15.21;55.94;101455.94;5015684;28;20053;-67
2021/10/01 02:09:11;;;;;;;5.93;1.63;;;;;;;15.07;56.44;101446.13;5036364;28;20046;-67
2021/10/01 02:11:43;;;;;;;5.07;1.33;;;;;;;15.14;57.33;101438.13;5021693;28;20511;-68
2021/10/01 02:14:16;;;;;;;4.85;1.48;;;;;;;15.24;57.10;101444.16;5038794;28;20053;-68
2021/10/01 02:16:46;;;;;;;7.32;1.85;;;;;;;15.08;57.16;101440.25;5037119;28;20056;-68
2021/10/01 02:19:14;;;;;;;4.03;1.38;;;;;;;15.07;57.89;101437.78;5026979;28;20631;-68
2021/10/01 02:21:42;;;;;;;6.82;1.63;;;;;;;15.03;57.37;101437.63;5017536;28;20056;-68
2021/10/01 02:24:10;;;;;;;9.15;1.83;;;;;;;14.97;58.67;101438.94;5001066;28;20061;-67
2021/10/01 02:26:45;;;;;;;5.50;1.52;;;;;;;15.10;57.97;101431.63;5017528;28;20050;-67
2021/10/01 02:29:19;;;;;;;7.32;1.70;;;;;;;15.19;57.31;101424.91;5001166;28;20060;-67
2021/10/01 02:31:50;;;;;;;4.80;1.30;;;;;;;15.15;57.38;101425.91;5016139;28;20506;-67
2021/10/01 02:34:24;;;;;;;6.47;1.60;;;;;;;14.89;58.24;101425.88;5036524;28;20062;-67
2021/10/01 02:36:53;;;;;;;7.97;1.75;;;;;;;15.14;58.12;101411.19;5020821;28;20496;-68
2021/10/01 02:39:20;;;;;;;7.10;1.63;;;;;;;14.88;58.79;101415.94;5044456;28;20052;-62
2021/10/01 02:41:48;;;;;;;6.07;1.58;;;;;;;15.10;58.58;101412.19;5040516;28;20056;-62
2021/10/01 02:44:15;;;;;;;5.90;1.60;;;;;;;14.89;58.19;101406.44;5037803;28;20049;-62
2021/10/01 02:46:43;;;;;;;7.07;1.90;;;;;;;14.93;58.60;101406.63;5020141;28;20053;-67
2021/10/01 02:49:11;;;;;;;7.85;1.85;;;;;;;14.98;58.62;101401.72;5037702;28;20056;-67
2021/10/01 02:51:43;;;;;;;8.02;1.45;;;;;;;14.82;58.45;101397.00;5037919;28;20053;-68
2021/10/01 02:54:14;;;;;;;5.57;1.40;;;;;;;14.82;58.37;101397.78;5019754;28;20054;-67
2021/10/01 02:57:05;;;;;;;5.50;1.80;;;;;;;14.77;58.95;101392.41;5000155;28;20049;-68
2021/10/01 02:59:39;;;;;;;6.60;1.67;;;;;;;14.67;59.05;101389.97;5001932;28;20058;-63
2021/10/01 03:02:08;;;;;;;10.60;1.88;;;;;;;14.27;60.08;101392.00;5030990;28;20149;-62
2021/10/01 03:04:37;;;;;;;5.90;1.73;;;;;;;14.28;60.72;101388.09;5032895;28;20065;-62
2021/10/01 03:07:04;;;;;;;8.40;1.95;;;;;;;14.59;59.44;101383.25;5024453;28;20053;-65
2021/10/01 03:09:35;;;;;;;8.67;1.70;;;;;;;14.57;59.93;101374.44;5036488;28;20060;-62
2021/10/01 03:12:03;;;;;;;5.75;1.65;;;;;;;14.54;60.17;101383.41;5036285;28;20296;-62
2021/10/01 03:14:31;;;;;;;7.95;1.77;;;;;;;14.54;59.12;101377.03;5036393;28;20045;-62
2021/10/01 03:16:59;;;;;;;4.97;1.50;;;;;;;14.72;60.05;101372.34;5019420;28;20378;-61
2021/10/01 03:19:26;;;;;;;7.07;1.70;;;;;;;14.69;58.34;101371.03;5023221;28;20046;-63
2021/10/01 03:21:55;;;;;;;7.25;1.70;;;;;;;14.75;58.94;101375.28;5016043;28;20057;-62
2021/10/01 03:24:23;;;;;;;7.47;1.70;;;;;;;14.67;59.82;101367.78;5000104;28;20408;-62
2021/10/01 03:26:53;;;;;;;6.35;1.60;;;;;;;14.62;59.01;101366.00;5016849;28;20121;-63
2021/10/01 03:29:21;;;;;;;6.68;1.80;;;;;;;14.73;59.67;101366.50;5020118;28;20394;-63
2021/10/01 03:31:49;;;;;;;5.03;1.70;;;;;;;14.84;59.74;101358.63;5019379;28;20050;-61
2021/10/01 03:34:17;;;;;;;8.80;2.05;;;;;;;14.53;59.15;101356.84;5035418;28;20054;-62
2021/10/01 03:36:48;;;;;;;8.07;1.52;;;;;;;14.58;60.18;101359.47;5005912;28;20073;-62
2021/10/01 03:39:20;;;;;;;10.02;1.98;;;;;;;14.54;59.94;101352.91;5030164;28;20055;-62
2021/10/01 03:41:49;;;;;;;8.05;1.77;;;;;;;14.56;60.24;101360.91;5055887;28;20049;-62
2021/10/01 03:44:16;;;;;;;4.80;1.45;;;;;;;14.43;60.15;101356.34;5055748;28;20048;-63
2021/10/01 03:46:47;;;;;;;5.97;1.83;;;;;;;14.39;61.02;101355.34;5041100;28;20053;-62
2021/10/01 03:49:14;;;;;;;4.70;1.67;;;;;;;14.57;60.46;101357.81;5019168;28;20060;-63
2021/10/01 03:51:42;;;;;;;4.90;1.58;;;;;;;14.54;60.50;101352.09;5035698;28;20374;-62
2021/10/01 03:54:10;;;;;;;8.93;1.98;;;;;;;14.63;60.49;101353.75;5035406;28;20543;-62
2021/10/01 03:56:37;;;;;;;6.88;1.75;;;;;;;14.65;60.50;101350.66;5035595;28;20056;-63
2021/10/01 03:59:05;;;;;;;6.75;1.42;;;;;;;14.52;60.18;101343.31;5021821;28;20049;-62
2021/10/01 04:01:32;;;;;;;8.73;2.10;;;;;;;14.49;61.08;101343.94;5029053;28;20137;-62
2021/10/01 04:04:00;;;;;;;7.15;2.30;;;;;;;14.59;60.56;101335.31;5034054;28;20041;-63
2021/10/01 04:06:27;;;;;;;5.13;1.50;;;;;;;14.53;59.88;101334.66;5017641;28;20057;-62
2021/10/01 04:08:55;;;;;;;4.88;1.50;;;;;;;14.43;60.95;101335.00;5035044;28;20057;-62
2021/10/01 04:11:22;;;;;;;6.90;1.73;;;;;;;14.42;61.19;101319.47;5034486;28;20049;-62
2021/10/01 04:13:49;;;;;;;11.23;1.85;;;;;;;14.22;60.52;101324.81;5031146;28;20054;-62
2021/10/01 04:16:17;;;;;;;9.20;1.70;;;;;;;14.35;61.46;101307.22;5014918;28;20052;-62
2021/10/01 04:18:44;;;;;;;6.38;1.70;;;;;;;14.08;62.13;101311.09;5014912;28;20164;-62
2021/10/01 04:21:12;;;;;;;9.20;1.63;;;;;;;13.95;62.13;101316.72;5014734;28;20053;-62
2021/10/01 04:23:41;;;;;;;6.47;1.42;;;;;;;13.80;63.17;101320.78;4998768;28;20229;-62
2021/10/01 04:26:38;;;;;;;9.43;1.98;;;;;;;13.14;62.97;101329.22;5021887;28;20073;-61
2021/10/01 04:29:05;;;;;;;7.80;2.13;;;;;;;13.19;65.68;101332.69;5014734;28;20058;-61
2021/10/01 04:31:33;;;;;;;6.35;1.73;;;;;;;13.65;64.00;101323.94;4997706;28;20050;-62
2021/10/01 04:34:00;;;;;;;9.18;2.05;;;;;;;13.87;63.16;101320.28;5001599;28;20068;-63
2021/10/01 04:36:31;;;;;;;8.00;1.73;;;;;;;13.71;64.09;101317.16;5050737;28;20049;-62
2021/10/01 04:39:00;;;;;;;6.78;1.90;;;;;;;13.90;63.57;101320.47;5040771;28;20495;-63
2021/10/01 04:41:28;;;;;;;5.78;1.90;;;;;;;14.02;62.80;101322.63;5054145;28;20052;-62
2021/10/01 04:43:56;;;;;;;8.70;1.83;;;;;;;14.31;62.68;101325.66;5051750;28;20060;-62
2021/10/01 04:46:35;;;;;;;7.30;1.70;;;;;;;14.29;61.54;101325.16;5034165;28;20468;-62
2021/10/01 04:49:03;;;;;;;6.55;1.70;;;;;;;14.31;62.05;101320.91;5033922;28;20523;-62
2021/10/01 04:51:30;;;;;;;6.40;1.95;;;;;;;14.10;62.82;101314.34;5018147;28;20061;-62
2021/10/01 04:53:58;;;;;;;6.72;2.03;;;;;;;14.32;62.25;101317.03;5033454;28;20235;-65
2021/10/01 04:56:26;;;;;;;9.40;1.90;;;;;;;14.26;62.34;101311.97;5034636;28;20078;-61
2021/10/01 04:58:55;;;;;;;6.18;2.00;;;;;;;14.39;61.51;101311.81;5017569;28;20064;-63
2021/10/01 05:01:41;;;;;;;7.22;1.92;;;;;;;14.39;62.42;101316.53;5035063;28;20580;-61
2021/10/01 05:04:11;;;;;;;8.75;2.28;;;;;;;14.37;62.06;101322.41;5033506;28;20076;-62
2021/10/01 05:06:41;;;;;;;10.02;2.22;;;;;;;14.29;61.62;101316.84;5029085;28;20045;-61
2021/10/01 05:09:28;;;;;;;6.32;2.00;;;;;;;14.44;61.38;101313.59;5003781;28;20062;-61
2021/10/01 05:12:16;;;;;;;8.90;2.55;;;;;;;14.23;62.18;101320.88;5023976;28;20073;-61
2021/10/01 05:15:02;;;;;;;5.88;1.80;;;;;;;14.21;61.11;101301.81;5015155;28;20057;-62
2021/10/01 05:17:51;;;;;;;8.93;2.20;;;;;;;13.58;60.38;101310.56;5021683;28;20049;-62
2021/10/01 05:20:37;;;;;;;8.43;2.05;;;;;;;13.64;64.81;101308.47;5034751;28;20050;-63
2021/10/01 05:23:11;;;;;;;9.13;2.45;;;;;;;14.00;64.19;101306.31;5034244;28;20050;-62
2021/10/01 05:25:39;;;;;;;7.50;2.33;;;;;;;14.01;63.33;101313.50;5028691;28;20049;-63
2021/10/01 05:28:06;;;;;;;13.50;3.60;;;;;;;14.02;63.37;101308.75;5034130;28;20393;-62
2021/10/01 05:30:33;;;;;;;7.55;2.17;;;;;;;13.66;62.36;101309.00;5033508;28;20061;-64
2021/10/01 05:33:05;;;;;;;5.72;1.80;;;;;;;13.74;64.42;101299.09;5034687;28;20053;-62
2021/10/01 05:35:34;;;;;;;6.82;2.15;;;;;;;13.94;63.56;101312.34;5029623;28;20048;-61
2021/10/01 05:38:03;;;;;;;7.13;2.88;;;;;;;13.99;62.74;101314.97;5026478;28;20500;-62
2021/10/01 05:40:31;;;;;;;10.32;1.95;;;;;;;14.17;63.79;101305.56;5034405;28;20167;-63
2021/10/01 05:43:03;;;;;;;6.70;2.47;;;;;;;14.33;63.11;101298.47;5027451;28;20050;-62
2021/10/01 05:45:30;;;;;;;9.65;2.35;;;;;;;14.15;62.39;101302.28;5053265;28;20044;-62
2021/10/01 05:48:16;;;;;;;7.32;2.10;;;;;;;13.97;63.81;101298.66;5052828;28;20080;-62
2021/10/01 05:51:07;;;;;;;11.13;2.45;;;;;;;14.15;63.63;101291.22;5053257;28;20405;-63
2021/10/01 05:56:58;;;;;;;9.85;2.15;;;;;;;14.13;63.38;101296.25;5038899;28;20057;-62
2021/10/01 05:59:53;;;;;;;10.80;3.17;;;;;;;14.23;63.66;101291.22;5018824;28;20491;-62
2021/10/01 06:02:21;;;;;;;7.82;2.55;;;;;;;14.25;63.78;101285.34;5034036;28;20060;-63
2021/10/01 06:04:52;;;;;;;14.57;2.08;;;;;;;14.48;62.91;101286.88;5031469;28;20057;-62
2021/10/01 06:07:20;;;;;;;12.13;2.45;;;;;;;14.41;62.90;101289.31;5026601;28;20046;-62
2021/10/01 06:09:47;;;;;;;8.30;2.53;;;;;;;14.23;63.29;101279.31;5021247;28;20717;-60
2021/10/01 06:12:15;;;;;;;8.85;2.40;;;;;;;14.10;62.90;101286.66;5033566;28;20046;-62
2021/10/01 06:14:43;;;;;;;11.50;2.05;;;;;;;14.10;63.33;101291.38;5014793;28;20480;-62
2021/10/01 06:17:12;;;;;;;18.35;4.32;;;;;;;14.27;64.08;101288.66;5021195;28;20049;-61
2021/10/01 06:19:42;;;;;;;16.15;7.65;;;;;;;14.52;62.91;101288.66;5019832;28;20045;-61
2021/10/01 06:22:11;;;;;;;12.05;3.60;;;;;;;14.15;61.25;101289.25;5029832;28;20056;-65
2021/10/01 06:24:39;;;;;;;16.45;5.38;;;;;;;14.29;63.68;101283.59;5032083;28;20049;-62
2021/10/01 06:27:08;;;;;;;11.40;2.75;;;;;;;13.73;64.58;101280.84;5033183;28;20041;-62
2021/10/01 06:29:35;;;;;;;6.95;2.38;;;;;;;13.64;62.72;101277.22;5031230;28;20045;-64
2021/10/01 06:32:03;;;;;;;12.60;2.90;;;;;;;13.89;65.30;101279.25;5033414;28;20057;-63
2021/10/01 06:34:30;;;;;;;14.98;3.33;;;;;;;14.25;64.15;101280.63;5033171;28;20057;-63
2021/10/01 06:36:58;;;;;;;14.32;2.85;;;;;;;13.74;62.04;101274.19;5033063;28;20040;-63
2021/10/01 06:39:26;;;;;;;8.45;2.22;;;;;;;14.18;63.56;101276.69;5018784;28;20060;-62
2021/10/01 06:41:58;;;;;;;14.15;2.40;;;;;;;14.11;61.31;101265.28;5032171;28;20648;-66
2021/10/01 06:44:33;;;;;;;11.68;4.55;;;;;;;14.25;63.07;101280.63;5023782;28;20053;-66
2021/10/01 06:47:10;;;;;;;13.67;5.43;;;;;;;14.55;61.98;101278.88;5029274;28;20038;-68
2021/10/01 07:36:26;;;;;;;13.27;3.40;;;;;;;15.53;59.90;101274.94;5035154;28;20048;-64
2021/10/01 08:20:05;;;;;;;10.77;3.40;;;;;;;16.13;58.73;101238.50;5034304;28;20058;-63
2021/10/01 08:22:32;;;;;;;13.50;2.92;;;;;;;16.07;58.47;101236.28;5035185;28;20052;-63
2021/10/01 08:24:59;;;;;;;10.75;3.20;;;;;;;16.11;58.99;101224.13;5035510;28;20045;-64
2021/10/01 08:27:27;;;;;;;14.07;2.53;;;;;;;16.23;58.51;101224.19;5035326;28;20551;-62
2021/10/01 08:29:54;;;;;;;12.57;6.85;;;;;;;16.36;58.02;101214.78;5033958;28;20052;-66
2021/10/01 08:32:21;;;;;;;15.32;2.95;;;;;;;16.37;58.45;101219.19;5033751;28;20045;-64
2021/10/01 08:34:49;;;;;;;13.38;2.72;;;;;;;16.51;57.95;101222.53;5034532;28;20054;-65
2021/10/01 08:37:17;;;;;;;13.48;2.80;;;;;;;16.50;58.46;101220.91;5033219;28;20080;-65
2021/10/01 08:39:44;;;;;;;9.95;2.72;;;;;;;16.80;59.32;101219.66;5035354;28;20052;-64
2021/10/01 08:42:30;;;;;;;10.45;2.50;;;;;;;16.92;59.10;101204.94;5032443;28;20064;-65
2021/10/01 08:44:57;;;;;;;13.82;2.70;;;;;;;17.15;60.34;101208.13;5034811;28;20073;-65
2021/10/01 08:47:24;;;;;;;11.02;2.30;;;;;;;17.06;59.95;101213.78;5034814;28;20044;-65
2021/10/01 08:49:54;;;;;;;13.15;2.47;;;;;;;17.18;59.58;101207.41;5033802;28;20408;-67
2021/10/01 08:52:21;;;;;;;8.15;2.67;;;;;;;17.10;59.25;101205.56;5034346;28;20428;-68
2021/10/01 08:54:49;;;;;;;11.93;2.78;;;;;;;17.19;58.74;101201.50;5033192;28;20053;-69
2021/10/01 08:57:16;;;;;;;14.15;3.15;;;;;;;16.99;58.56;101202.41;5034410;28;20041;-68
2021/10/01 08:59:44;;;;;;;16.17;3.05;;;;;;;16.82;57.94;101197.03;5032410;28;20049;-72
2021/10/01 09:02:11;;;;;;;9.50;3.53;;;;;;;16.63;59.70;101197.53;5033123;28;20049;-64
2021/10/01 09:04:39;;;;;;;22.15;2.63;;;;;;;16.83;60.18;101193.09;5032429;28;20053;-64
2021/10/01 09:07:06;;;;;;;11.95;2.33;;;;;;;17.07;58.87;101200.69;5034942;28;20045;-61
2021/10/01 09:09:43;;;;;;;13.98;2.55;;;;;;;17.07;58.69;101195.91;5017649;28;20072;-65
2021/10/01 09:12:15;;;;;;;9.27;3.05;;;;;;;17.22;58.25;101191.66;5016183;28;20053;-64
2021/10/01 09:14:48;;;;;;;17.58;4.68;;;;;;;17.61;57.24;101183.47;5034995;28;20053;-64
2021/10/01 09:17:17;;;;;;;12.45;3.25;;;;;;;17.53;56.95;101184.41;5031935;28;20048;-65
2021/10/01 09:19:44;;;;;;;6.13;2.13;;;;;;;17.57;56.85;101185.31;5023211;28;20045;-64
2021/10/01 09:22:33;;;;;;;11.77;2.47;;;;;;;17.50;57.08;101190.69;5032310;28;20060;-61
2021/10/01 09:25:14;;;;;;;11.20;3.17;;;;;;;17.47;57.17;101180.22;5025037;28;20516;-63
2021/10/01 09:27:43;;;;;;;14.35;2.95;;;;;;;17.68;56.92;101180.06;5031902;28;20148;-62
2021/10/01 09:30:12;;;;;;;8.65;2.22;;;;;;;17.59;57.46;101182.19;5027953;28;20057;-62
2021/10/01 09:32:41;;;;;;;10.13;2.50;;;;;;;17.56;57.39;101178.13;5018548;28;20084;-64
2021/10/01 09:35:10;;;;;;;;;;;;;;;17.71;56.78;101173.81;5035277;28;20053;-64
2021/10/01 09:37:37;;;;;;;13.60;2.55;;;;;;;17.78;56.59;101174.06;5034119;28;19921;-65
2021/10/01 09:40:05;;;;;;;14.73;3.05;;;;;;;17.77;56.32;101181.59;5028432;28;20061;-64
2021/10/01 09:42:43;;;;;;;8.50;2.55;;;;;;;17.98;56.12;101179.47;5030793;28;20048;-63
2021/10/01 09:45:12;;;;;;;14.30;2.45;;;;;;;18.01;56.12;101189.09;5034288;28;20045;-64
2021/10/01 09:47:47;;;;;;;8.07;2.35;;;;;;;17.96;56.30;101180.97;5033192;28;20041;-64
2021/10/01 09:50:22;;;;;;;9.82;2.55;;;;;;;17.78;57.06;101182.41;5029132;28;20405;-65
2021/10/01 09:52:52;;;;;;;14.02;3.08;;;;;;;17.79;57.42;101181.22;5030700;28;20053;-65
2021/10/01 09:55:21;;;;;;;;;;;;;;;17.86;57.33;101184.25;5034645;28;20052;-64
2021/10/01 09:58:06;;;;;;;14.40;3.63;;;;;;;17.93;57.22;101176.94;5033640;28;19920;-65
2021/10/01 10:00:52;;;;;;;18.75;3.75;;;;;;;17.91;57.46;101182.03;5031733;28;20461;-66
2021/10/01 10:03:26;;;;;;;11.90;3.83;;;;;;;18.16;56.75;101187.53;5036759;28;20045;-67
2021/10/01 10:06:04;;;;;;;13.30;3.53;;;;;;;18.09;56.85;101173.41;5031713;28;20049;-66
2021/10/01 10:08:36;;;;;;;12.57;3.08;;;;;;;17.96;57.28;101178.19;5034027;28;20046;-67
2021/10/01 10:11:10;;;;;;;11.02;2.65;;;;;;;18.23;56.55;101171.84;5034350;28;20103;-65
2021/10/01 10:13:46;;;;;;;8.80;2.05;;;;;;;18.19;56.46;101167.31;5034277;28;20064;-66
2021/10/01 10:16:18;;;;;;;9.55;3.05;;;;;;;18.21;56.83;101173.34;5017543;28;20163;-67
2021/10/01 10:18:50;;;;;;;11.80;2.75;;;;;;;18.30;56.50;101163.69;5022116;28;20512;-65
2021/10/01 10:21:18;;;;;;;9.98;2.50;;;;;;;18.18;56.97;101165.72;5032478;28;20054;-67
2021/10/01 10:23:46;;;;;;;9.95;2.85;;;;;;;18.41;56.39;101173.19;5034298;28;20059;-67
2021/10/01 10:26:13;;;;;;;7.00;2.67;;;;;;;18.39;56.14;101180.28;5027647;28;20053;-66
2021/10/01 10:28:42;;;;;;;15.07;5.75;;;;;;;18.50;55.87;101167.47;5023262;28;20049;-66
2021/10/01 10:31:12;;;;;;;14.30;6.07;;;;;;;18.60;55.73;101169.75;5036738;28;20611;-66
2021/10/01 10:33:50;;;;;;;21.10;8.02;;;;;;;18.53;55.28;101167.56;5035917;28;20050;-65
2021/10/01 10:36:26;;;;;;;15.15;6.72;;;;;;;18.53;55.90;101163.97;5037818;28;20057;-68
2021/10/01 10:38:55;;;;;;;15.43;5.28;;;;;;;18.39;nan;101164.34;5035788;28;20046;-66
2021/10/01 10:41:28;;;;;;;15.18;5.75;;;;;;;18.25;60.23;101151.97;5037321;28;20420;-67
2021/10/01 10:43:56;;;;;;;18.80;7.25;;;;;;;18.29;58.90;101150.91;5035627;28;20441;-67
2021/10/01 10:46:49;;;;;;;13.80;3.00;;;;;;;18.47;58.77;101131.91;5036406;28;20056;-68
2021/10/01 10:49:24;;;;;;;15.93;5.50;;;;;;;18.49;58.37;101119.25;5025201;28;20064;-67
2021/10/01 10:51:58;;;;;;;13.38;3.33;;;;;;;18.39;59.63;101130.06;5033709;28;20057;-68
2021/10/01 10:54:31;;;;;;;10.75;2.80;;;;;;;18.29;58.97;101117.44;5029152;28;20042;-66
2021/10/01 10:57:21;;;;;;;12.00;2.95;;;;;;;18.40;60.21;101117.72;5034472;28;20060;-69
2021/10/01 11:00:19;;;;;;;17.50;3.20;;;;;;;18.39;60.02;101127.28;5030392;28;20088;-68
2021/10/01 11:02:46;;;;;;;12.35;3.05;;;;;;;18.56;61.61;101127.81;5013787;28;20049;-64
2021/10/01 11:05:26;;;;;;;11.65;2.95;;;;;;;18.44;59.82;101130.66;5034072;28;20065;-66
2021/10/01 11:07:53;;;;;;;11.13;3.10;;;;;;;18.68;61.74;101129.69;5032143;28;20053;-65
2021/10/01 11:10:40;;;;;;;9.27;2.97;;;;;;;18.67;59.96;101123.31;5032438;28;20404;-65
2021/10/01 11:13:22;;;;;;;14.15;3.97;;;;;;;18.76;59.69;101117.56;5036286;28;20618;-65
2021/10/01 11:18:36;;;;;;;10.07;3.75;;;;;;;19.20;58.32;101105.13;5037014;28;20053;-63
2021/10/01 11:21:32;;;;;;;14.35;4.72;;;;;;;18.88;58.35;101100.75;5036448;28;20045;-63
2021/10/01 11:24:11;;;;;;;10.98;3.90;;;;;;;18.97;58.96;101093.81;5017302;28;20080;-65
2021/10/01 11:26:41;;;;;;;13.75;3.40;;;;;;;18.77;58.61;101094.06;5021232;28;20053;-66
2021/10/01 11:29:22;;;;;;;;;;;;;;;18.93;58.07;101090.09;5033441;28;20053;-66
2021/10/01 11:31:52;;;;;;;10.35;2.80;;;;;;;19.07;58.16;101089.66;5020454;28;19921;-66
2021/10/01 11:35:01;;;;;;;15.40;3.00;;;;;;;19.22;58.05;101085.22;5036392;28;20058;-65
2021/10/01 11:37:29;;;;;;;12.40;4.75;;;;;;;19.09;57.81;101088.13;5013772;28;20054;-66
2021/10/01 11:40:16;;;;;;;12.00;5.60;;;;;;;19.15;58.12;101080.28;5027325;28;20066;-67
2021/10/01 11:42:45;;;;;;;15.27;3.55;;;;;;;19.10;58.27;101083.34;5029115;28;20068;-64
2021/10/01 11:45:34;;;;;;;9.15;2.20;;;;;;;19.05;57.35;101084.44;5035890;28;20050;-64
2021/10/01 11:48:11;;;;;;;14.57;2.53;;;;;;;19.11;57.23;101081.38;5036045;28;20049;-65
2021/10/01 11:50:43;;;;;;;11.07;2.70;;;;;;;19.19;57.08;101066.41;5036195;28;20049;-63
2021/10/01 11:53:24;;;;;;;12.13;2.80;;;;;;;19.19;57.53;101075.59;5035855;28;20053;-64
2021/10/01 11:55:58;;;;;;;10.80;2.95;;;;;;;19.02;58.31;101073.97;5036689;28;20060;-64
2021/10/01 11:58:27;;;;;;;15.35;3.22;;;;;;;19.04;58.17;101065.22;5030436;28;20053;-65
2021/10/01 12:00:55;;;;;;;7.03;1.90;;;;;;;19.08;57.94;101055.78;5040864;28;20053;-65
2021/10/01 12:03:24;;;;;;;10.57;2.50;;;;;;;19.24;57.13;101054.94;5033911;28;20049;-65
2021/10/01 12:05:53;;;;;;;10.80;1.95;;;;;;;19.38;56.79;101055.31;5035318;28;20500;-65
2021/10/01 12:08:29;;;;;;;10.40;1.92;;;;;;;19.37;57.20;101048.91;5030554;28;20061;-65
2021/10/01 12:10:57;;;;;;;11.57;2.13;;;;;;;19.69;56.26;101039.25;5035489;28;20049;-67
2021/10/01 12:13:32;;;;;;;16.02;2.60;;;;;;;19.70;56.32;101040.88;5034494;28;20112;-65
2021/10/01 12:16:04;;;;;;;12.38;2.47;;;;;;;19.78;56.29;101033.44;5030785;28;20469;-66
2021/10/01 12:18:45;;;;;;;8.55;2.35;;;;;;;19.92;55.41;101037.34;5036310;28;20507;-67
2021/10/01 12:21:14;;;;;;;14.52;2.13;;;;;;;19.84;55.24;101043.16;5034295;28;20053;-66
2021/10/01 12:23:46;;;;;;;9.35;1.65;;;;;;;19.67;56.21;101044.41;5032456;28;20046;-66
2021/10/01 12:26:31;;;;;;;8.80;1.77;;;;;;;19.51;56.58;101034.47;5033966;28;20068;-65
2021/10/01 12:29:11;;;;;;;15.00;6.38;;;;;;;19.58;56.30;101035.41;5028360;28;20044;-65
2021/10/01 12:31:56;;;;;;;9.50;2.60;;;;;;;19.54;56.70;101030.94;5035395;28;20569;-68
2021/10/01 12:34:26;;;;;;;9.13;2.22;;;;;;;19.67;56.43;101021.22;5032545;28;20416;-67
2021/10/01 12:36:57;;;;;;;10.55;2.28;;;;;;;19.40;57.19;101022.22;5034749;28;20238;-65
2021/10/01 12:39:26;;;;;;;10.43;2.08;;;;;;;19.44;57.05;101020.34;5025372;28;20045;-66
2021/10/01 12:41:56;;;;;;;7.28;1.58;;;;;;;19.35;57.32;101017.75;5034711;28;20500;-65
2021/10/01 12:44:23;;;;;;;6.50;1.83;;;;;;;19.53;57.47;101012.53;5035154;28;20049;-64
2021/10/01 12:46:52;;;;;;;8.50;2.25;;;;;;;19.70;56.65;101007.31;5034924;28;20164;-66
2021/10/01 12:49:28;;;;;;;11.38;1.83;;;;;;;19.51;57.08;101007.31;5033332;28;20045;-65
2021/10/01 12:52:15;;;;;;;9.63;1.67;;;;;;;19.66;56.53;101002.84;5033893;28;20057;-65
2021/10/01 12:54:45;;;;;;;7.97;2.00;;;;;;;19.75;56.54;100995.06;5030885;28;20045;-66
2021/10/01 12:57:19;;;;;;;8.98;2.30;;;;;;;19.76;56.69;100993.88;5019617;28;20064;-66
2021/10/01 12:59:57;;;;;;;9.27;2.28;;;;;;;19.79;56.66;100984.72;5029824;28;20057;-66
2021/10/01 13:02:26;;;;;;;9.55;2.05;;;;;;;19.97;56.04;100992.31;5033653;28;20049;-65
2021/10/01 13:05:00;;;;;;;6.57;1.77;;;;;;;19.81;56.25;100974.81;5032116;28;20061;-66
2021/10/01 13:07:37;;;;;;;8.70;2.22;;;;;;;19.92;55.79;100977.81;5030219;28;20516;-65
2021/10/01 13:10:29;;;;;;;8.32;2.35;;;;;;;19.86;55.99;100988.50;5035256;28;20053;-66
2021/10/01 13:13:01;;;;;;;10.57;2.28;;;;;;;19.79;56.34;100977.16;5026445;28;20064;-65
2021/10/01 13:15:44;;;;;;;14.65;5.30;;;;;;;19.66;56.74;100988.88;5026111;28;20525;-66
2021/10/01 13:18:14;;;;;;;9.88;3.42;;;;;;;19.70;56.64;100993.34;5035469;28;20049;-65